Garwin, Iowa
Current Conditions -  °F | °C
As of 10:53 PM on Monday 22 Dec 2014 (Local Time) from KMIW Reporting Station
Light Rain Light Rain  
Wind Chill: -2°   Ceiling: 400
Heat Index:   Visibility: 9mi
Dew Point:   Wind: 9mph
Humidity: 97%   Direction: 80°E
Pressure: 29.45"   Gusts: NA
Location:  42.09°N, 92.68°W
Report Text: KMIW 230453Z AUTO 08008KT 9SM -RA OVC004 02/02 A2945 RMK AO2 SLP980 P0003 T00220017
Loading
Personal Weather Stations






























Interactive Weather Map New forecast layout! Learn more

10-Day Weather Forecast

Advertisements
Track Severe Weather on mobile